.
WxDataArchive / Data Records for 2013-04-16
2013-04-15 April 2013 2013-04-17

Data Records for Tuesday, 16 April 2013

Time	Temp	Chill	HIndex	Humid	Dewpt	 Wind 	HiWind	WindDir	Rain 	Barom 
-----	----	-----	------	-----	-----	------	------	-------	-----	----- 
00:00	61.0	61.0	61.0	74	52.6	3	7	112	0.00	29.868 
00:05	61.0	61.0	61.0	74	52.6	3	9	112	0.00	29.868 
00:10	61.0	61.0	61.0	74	52.6	1	5	90	0.00	29.868 
00:15	61.0	61.0	61.0	74	52.6	2	5	90	0.00	29.877 
00:20	61.0	61.0	61.0	74	52.6	2	6	112	0.00	29.877 
00:25	61.0	61.0	61.0	74	52.6	1	3	112	0.00	29.877 
00:30	61.2	61.2	61.2	74	52.8	1	5	112	0.00	29.882 
00:35	61.3	61.3	61.3	74	52.9	2	4	112	0.00	29.882 
00:40	61.3	61.3	61.3	73	52.6	2	5	112	0.00	29.882 
00:45	61.3	61.3	61.3	73	52.6	2	6	90	0.00	29.861 
00:50	61.3	61.3	61.3	73	52.6	2	5	90	0.00	29.861 
00:55	61.2	61.2	61.2	74	52.8	1	4	90	0.00	29.861 
01:00	61.0	61.0	61.0	74	52.6	2	7	112	0.00	29.857 
01:05	60.9	60.9	60.9	74	52.6	1	4	112	0.00	29.857 
01:10	60.7	60.7	60.7	75	52.7	1	7	112	0.00	29.857 
01:15	60.7	60.7	60.7	75	52.7	1	5	90	0.00	29.866 
01:20	60.5	60.5	60.5	75	52.5	1	3	90	0.00	29.866 
01:25	60.5	60.5	60.5	75	52.5	1	4	270	0.00	29.866 
01:30	60.4	60.4	60.4	75	52.4	0	3	270	0.00	29.871 
01:35	60.4	60.4	60.4	75	52.4	0	2	270	0.00	29.871 
01:40	60.4	60.4	60.4	75	52.4	2	12	248	0.00	29.871 
01:45	60.4	60.4	60.4	75	52.4	1	2	248	0.00	29.858 
01:50	60.2	60.2	60.2	75	52.2	0	2	248	0.00	29.858 
01:55	60.1	60.1	60.1	76	52.5	0	2	248	0.00	29.858 
02:00	59.9	59.9	59.9	76	52.3	0	2	248	0.00	29.857 
02:05	59.8	59.8	59.8	76	52.2	1	3	248	0.00	29.857 
02:10	59.8	59.8	59.8	77	52.6	0	2	248	0.00	29.857 
02:15	59.8	59.8	59.8	77	52.6	0	3	248	0.00	29.858 
02:20	59.8	59.8	59.8	77	52.6	0	3	248	0.00	29.858 
02:25	59.8	59.8	59.8	77	52.6	0	2	248	0.00	29.858 
02:30	59.9	59.9	59.9	77	52.7	2	4	248	0.00	29.873 
02:35	60.2	60.2	60.2	76	52.6	2	4	248	0.00	29.873 
02:40	60.2	60.2	60.2	76	52.6	1	3	248	0.00	29.873 
02:45	60.4	60.4	60.4	76	52.8	2	4	248	0.00	29.882 
02:50	60.2	60.2	60.2	76	52.6	1	3	248	0.00	29.882 
02:55	60.2	60.2	60.2	76	52.6	1	4	248	0.00	29.882 
03:00	60.2	60.2	60.2	76	52.6	1	3	248	0.00	29.884 
03:05	60.1	60.1	60.1	76	52.5	0	1	248	0.00	29.884 
03:10	59.9	59.9	59.9	77	52.7	0	1	248	0.00	29.884 
03:15	59.8	59.8	59.8	77	52.6	1	3	248	0.00	29.875 
03:20	59.3	59.3	59.3	76	51.7	3	6	248	0.00	29.875 
03:25	56.6	56.6	56.6	77	49.5	3	5	338	0.00	29.875 
03:30	54.7	54.7	54.7	80	48.7	2	5	338	0.00	29.907 
03:35	53.8	53.8	53.8	82	48.4	2	7	338	0.00	29.907 
03:40	53.2	53.2	53.2	84	48.5	2	6	338	0.00	29.907 
03:45	52.6	52.6	52.6	84	47.9	2	5	0	0.00	29.911 
03:50	52.0	52.0	52.0	84	47.3	2	6	292	0.00	29.911 
03:55	51.7	51.7	51.7	85	47.3	1	3	338	0.00	29.911 
04:00	51.4	51.4	51.4	85	47.0	1	4	315	0.00	29.908 
04:05	51.1	51.1	51.1	85	46.7	1	4	0	0.00	29.908 
04:10	51.0	51.0	51.0	85	46.7	0	2	0	0.00	29.908 
04:15	50.7	50.7	50.7	85	46.4	1	4	292	0.00	29.912 
04:20	50.5	50.5	50.5	85	46.2	1	3	292	0.00	29.912 
04:25	50.4	50.4	50.4	85	46.1	0	2	22	0.00	29.912 
04:30	50.2	50.2	50.2	85	45.9	0	1	22	0.00	29.907 
04:35	50.2	50.2	50.2	85	45.9	0	2	22	0.00	29.907 
04:40	50.2	50.2	50.2	85	45.9	0	2	22	0.00	29.907 
04:45	50.1	50.1	50.1	85	45.8	0	2	22	0.00	29.913 
04:50	50.1	50.1	50.1	85	45.8	0	3	22	0.00	29.913 
04:55	50.1	50.1	50.1	86	46.1	0	3	22	0.00	29.913 
05:00	50.1	50.1	50.1	86	46.1	0	4	338	0.00	29.914 
05:05	49.8	49.8	49.8	87	46.1	1	4	338	0.00	29.914 
05:10	49.8	49.8	49.8	87	46.1	0	2	338	0.00	29.914 
05:15	49.8	49.8	49.8	87	46.1	0	2	338	0.00	29.931 
05:20	49.8	49.8	49.8	88	46.4	1	4	270	0.01	29.931 
05:25	49.6	49.6	49.6	88	46.2	2	5	270	0.06	29.931 
05:30	49.4	49.4	49.4	89	46.3	1	5	270	0.12	29.974 
05:35	49.1	49.1	49.1	90	46.3	1	3	315	0.11	29.974 
05:40	48.9	48.9	48.9	91	46.4	1	4	315	0.03	29.974 
05:45	48.8	48.8	48.8	91	46.3	2	4	270	0.03	29.978 
05:50	48.6	48.6	48.6	92	46.4	0	2	270	0.04	29.978 
05:55	48.6	48.6	48.6	92	46.4	0	2	270	0.02	29.978 
06:00	48.5	48.5	48.5	92	46.3	0	2	270	0.01	29.955 
06:05	48.5	48.5	48.5	92	46.3	0	2	158	0.02	29.955 
06:10	48.3	48.3	48.3	93	46.4	0	1	158	0.01	29.955 
06:15	48.3	48.3	48.3	93	46.4	0	1	158	0.01	29.949 
06:20	48.3	48.3	48.3	93	46.4	0	0	---	0.01	29.949 
06:25	48.3	48.3	48.3	93	46.4	0	0	---	0.00	29.949 
06:30	48.3	48.3	48.3	93	46.4	0	1	158	0.01	29.962 
06:35	48.2	48.2	48.2	93	46.3	0	0	---	0.01	29.962 
06:40	48.2	48.2	48.2	93	46.3	0	1	158	0.01	29.962 
06:45	48.2	48.2	48.2	94	46.6	0	1	158	0.01	29.960 
06:50	48.2	48.2	48.2	94	46.6	0	1	158	0.00	29.960 
06:55	48.2	48.2	48.2	94	46.6	0	0	---	0.01	29.960 
07:00	48.3	48.3	48.3	94	46.7	0	0	---	0.00	29.972 
07:05	48.3	48.3	48.3	94	46.7	0	0	---	0.01	29.972 
07:10	48.3	48.3	48.3	94	46.7	0	0	---	0.01	29.972 
07:15	48.3	48.3	48.3	94	46.7	0	0	---	0.00	29.980 
07:20	48.3	48.3	48.3	94	46.7	0	0	---	0.00	29.980 
07:25	48.3	48.3	48.3	94	46.7	0	0	---	0.01	29.980 
07:30	48.3	48.3	48.3	94	46.7	0	1	158	0.01	29.979 
07:35	48.5	48.5	48.5	94	46.9	0	1	158	0.00	29.979 
07:40	48.3	48.3	48.3	94	46.7	0	1	158	0.00	29.979 
07:45	48.3	48.3	48.3	94	46.7	0	1	158	0.01	29.986 
07:50	48.3	48.3	48.3	95	46.9	0	1	158	0.00	29.986 
07:55	48.3	48.3	48.3	95	46.9	0	0	---	0.00	29.986 
08:00	48.3	48.3	48.3	95	46.9	0	1	158	0.00	29.994 
08:05	48.3	48.3	48.3	95	46.9	0	1	158	0.00	29.994 
08:10	48.5	48.5	48.5	95	47.1	0	1	158	0.00	29.994 
08:15	48.6	48.6	48.6	95	47.2	0	1	158	0.00	30.028 
08:20	48.6	48.6	48.6	95	47.2	0	2	158	0.01	30.028 
08:25	48.6	48.6	48.6	95	47.2	0	1	158	0.00	30.028 
08:30	48.6	48.6	48.6	95	47.2	0	2	158	0.00	30.043 
08:35	48.5	48.5	48.5	95	47.1	0	1	158	0.00	30.043 
08:40	48.5	48.5	48.5	95	47.1	0	2	315	0.00	30.043 
08:45	48.3	48.3	48.3	95	46.9	1	3	315	0.00	30.047 
08:50	48.3	48.3	48.3	95	46.9	0	1	315	0.00	30.047 
08:55	48.3	48.3	48.3	95	46.9	0	2	315	0.00	30.047 
09:00	48.2	48.2	48.2	95	46.8	0	2	315	0.00	30.044 
09:05	48.0	48.0	48.0	95	46.6	0	2	315	0.00	30.044 
09:10	48.0	48.0	48.0	95	46.6	0	1	315	0.00	30.044 
09:15	47.9	47.9	47.9	95	46.5	0	2	315	0.00	30.053 
09:20	47.9	47.9	47.9	95	46.5	0	1	315	0.00	30.053 
09:25	47.9	47.9	47.9	95	46.5	0	1	315	0.00	30.053 
09:30	47.9	47.9	47.9	95	46.5	0	1	315	0.00	30.051 
09:35	47.9	47.9	47.9	95	46.5	0	1	315	0.00	30.051 
09:40	47.9	47.9	47.9	95	46.5	0	2	315	0.00	30.051 
09:45	48.0	48.0	48.0	95	46.6	0	2	315	0.00	30.078 
09:50	48.0	48.0	48.0	95	46.6	0	1	315	0.00	30.078 
09:55	47.9	47.9	47.9	95	46.5	0	1	315	0.00	30.078 
10:00	47.7	47.7	47.7	95	46.3	0	3	315	0.00	30.091 
10:05	47.6	47.6	47.6	95	46.2	1	4	270	0.00	30.091 
10:10	47.4	47.4	47.4	95	46.0	1	3	270	0.00	30.091 
10:15	47.4	47.4	47.4	95	46.0	0	2	270	0.00	30.081 
10:20	47.4	47.4	47.4	95	46.0	1	3	270	0.00	30.081 
10:25	47.4	47.4	47.4	95	46.0	1	4	270	0.00	30.081 
10:30	47.4	47.4	47.4	95	46.0	1	5	338	0.00	30.065 
10:35	47.6	47.6	47.6	95	46.2	0	2	338	0.00	30.065 
10:40	47.6	47.6	47.6	95	46.2	1	3	338	0.00	30.065 
10:45	47.6	47.6	47.6	95	46.2	1	4	338	0.00	30.062 
10:50	47.6	47.6	47.6	95	46.2	1	3	338	0.00	30.062 
10:55	47.7	47.7	47.7	95	46.3	1	3	338	0.00	30.062 
11:00	47.7	47.7	47.7	95	46.3	1	3	315	0.00	30.066 
11:05	47.7	47.7	47.7	95	46.3	0	2	315	0.00	30.066 
11:10	47.7	47.7	47.7	95	46.3	1	5	270	0.00	30.066 
11:15	47.7	47.7	47.7	95	46.3	1	5	270	0.00	30.068 
11:20	47.9	47.9	47.9	95	46.5	1	3	270	0.00	30.068 
11:25	48.0	48.0	48.0	95	46.6	0	3	270	0.00	30.068 
11:30	48.3	48.3	48.3	95	46.9	0	2	270	0.00	30.062 
11:35	48.6	48.6	48.6	95	47.2	0	3	270	0.00	30.062 
11:40	48.8	48.8	48.8	94	47.1	0	2	270	0.00	30.062 
11:45	49.4	49.4	49.4	94	47.7	0	1	270	0.00	30.063 
11:50	50.1	50.1	50.1	94	48.4	0	1	270	0.00	30.063 
11:55	50.1	50.1	50.1	94	48.4	0	2	270	0.00	30.063 
12:00	50.4	50.4	50.4	94	48.7	0	1	270	0.00	30.067 
12:05	51.0	51.0	51.0	93	49.0	0	1	270	0.00	30.067 
12:10	51.0	51.0	51.0	92	48.8	0	2	270	0.00	30.067 
12:15	51.3	51.3	51.3	91	48.8	0	0	---	0.00	30.073 
12:20	51.6	51.6	51.6	90	48.8	0	2	270	0.00	30.073 
12:25	52.2	52.2	52.2	88	48.8	1	3	270	0.00	30.073 
12:30	52.5	52.5	52.5	87	48.7	1	2	270	0.00	30.076 
12:35	53.2	53.2	53.2	85	48.8	1	3	270	0.00	30.076 
12:40	53.5	53.5	53.5	83	48.5	1	6	338	0.00	30.076 
12:45	54.1	54.1	54.1	82	48.7	0	3	338	0.00	30.082 
12:50	54.4	54.4	54.4	81	48.7	1	4	248	0.00	30.082 
12:55	54.5	54.5	54.5	80	48.5	1	3	248	0.00	30.082 
13:00	54.7	54.7	54.7	79	48.3	1	3	248	0.00	30.087 
13:05	54.5	54.5	54.5	78	47.8	1	4	248	0.00	30.087 
13:10	54.5	54.5	54.5	78	47.8	1	2	248	0.00	30.087 
13:15	54.7	54.7	54.7	77	47.6	0	2	248	0.00	30.083 
13:20	55.1	55.1	55.1	77	48.0	1	2	248	0.00	30.083 
13:25	55.7	55.7	55.7	76	48.3	1	3	292	0.00	30.083 
13:30	56.0	56.0	56.0	74	47.8	1	3	292	0.00	30.085 
13:35	56.2	56.2	56.2	73	47.7	1	2	292	0.00	30.085 
13:40	56.2	56.2	56.2	73	47.7	1	4	270	0.00	30.085 
13:45	56.0	56.0	56.0	72	47.1	1	3	270	0.00	30.098 
13:50	55.7	55.7	55.7	72	46.8	2	4	270	0.00	30.098 
13:55	55.6	55.6	55.6	72	46.7	2	4	270	0.00	30.098 
14:00	55.6	55.6	55.6	73	47.1	1	3	248	0.00	30.103 
14:05	55.6	55.6	55.6	73	47.1	1	3	248	0.00	30.103 
14:10	55.3	55.3	55.3	70	45.7	3	5	248	0.00	30.103 
14:15	55.1	55.1	55.1	71	45.9	2	6	248	0.00	30.121 
14:20	55.1	55.1	55.1	72	46.2	1	3	292	0.00	30.121 
14:25	55.1	55.1	55.1	72	46.2	2	4	292	0.00	30.121 
14:30	55.0	55.0	55.0	72	46.1	2	4	248	0.00	30.121 
14:35	54.8	54.8	54.8	71	45.6	2	6	292	0.00	30.121 
14:40	54.8	54.8	54.8	72	45.9	2	3	270	0.00	30.121 
14:45	54.7	54.7	54.7	72	45.9	2	5	270	0.00	30.126 
14:50	54.5	54.5	54.5	72	45.7	2	4	248	0.00	30.126 
14:55	54.5	54.5	54.5	72	45.7	1	3	248	0.00	30.126 
15:00	54.7	54.7	54.7	73	46.2	1	3	248	0.00	30.129 
15:05	54.7	54.7	54.7	73	46.2	1	3	248	0.00	30.129 
15:10	54.5	54.5	54.5	72	45.7	1	4	292	0.00	30.129 
15:15	54.5	54.5	54.5	74	46.4	1	2	292	0.01	30.141 
15:20	53.9	53.9	53.9	76	46.5	1	3	292	0.00	30.141 
15:25	53.2	53.2	53.2	78	46.5	1	4	270	0.01	30.141 
15:30	52.6	52.6	52.6	79	46.3	0	1	270	0.01	30.128 
15:35	52.3	52.3	52.3	81	46.6	0	3	292	0.01	30.128 
15:40	52.0	52.0	52.0	82	46.7	0	2	315	0.01	30.128 
15:45	51.7	51.7	51.7	83	46.7	0	3	315	0.00	30.101 
15:50	51.6	51.6	51.6	84	46.9	0	1	315	0.01	30.101 
15:55	51.4	51.4	51.4	85	47.0	0	1	315	0.00	30.101 
16:00	51.4	51.4	51.4	86	47.4	0	1	315	0.00	30.126 
16:05	51.4	51.4	51.4	86	47.4	0	1	315	0.00	30.126 
16:10	51.4	51.4	51.4	86	47.4	0	1	315	0.00	30.126 
16:15	51.4	51.4	51.4	87	47.7	0	1	315	0.00	30.130 
16:20	51.6	51.6	51.6	87	47.9	0	1	315	0.00	30.130 
16:25	51.6	51.6	51.6	87	47.9	0	2	315	0.00	30.130 
16:30	51.6	51.6	51.6	87	47.9	0	2	315	0.00	30.118 
16:35	51.6	51.6	51.6	86	47.5	0	1	315	0.00	30.118 
16:40	51.7	51.7	51.7	86	47.6	0	1	315	0.00	30.118 
16:45	51.9	51.9	51.9	86	47.8	0	1	315	0.00	30.111 
16:50	52.0	52.0	52.0	86	47.9	0	1	315	0.00	30.111 
16:55	52.2	52.2	52.2	85	47.8	0	0	---	0.00	30.111 
17:00	52.2	52.2	52.2	85	47.8	0	0	---	0.00	30.123 
17:05	52.3	52.3	52.3	85	47.9	0	1	315	0.00	30.123 
17:10	52.5	52.5	52.5	84	47.8	0	0	---	0.00	30.123 
17:15	52.5	52.5	52.5	82	47.2	0	2	315	0.00	30.134 
17:20	52.5	52.5	52.5	79	46.2	0	1	315	0.00	30.134 
17:25	52.6	52.6	52.6	77	45.6	0	1	315	0.00	30.134 
17:30	52.6	52.6	52.6	76	45.3	0	1	315	0.00	30.143 
17:35	52.8	52.8	52.8	75	45.1	0	0	---	0.00	30.143 
17:40	52.8	52.8	52.8	74	44.7	0	1	315	0.00	30.143 
17:45	52.9	52.9	52.9	74	44.8	0	1	315	0.00	30.163 
17:50	53.1	53.1	53.1	74	45.0	0	1	315	0.00	30.163 
17:55	53.1	53.1	53.1	73	44.7	0	3	315	0.00	30.163 
18:00	53.1	53.1	53.1	72	44.3	0	1	315	0.00	30.161 
18:05	53.1	53.1	53.1	73	44.7	0	0	---	0.00	30.161 
18:10	53.1	53.1	53.1	73	44.7	0	1	315	0.00	30.161 
18:15	53.2	53.2	53.2	73	44.8	0	1	315	0.00	30.156 
18:20	53.3	53.3	53.3	73	44.9	0	1	315	0.00	30.156 
18:25	53.3	53.3	53.3	71	44.1	0	2	315	0.00	30.156 
18:30	53.5	53.5	53.5	69	43.6	0	1	315	0.00	30.148 
18:35	53.5	53.5	53.5	69	43.6	0	1	315	0.00	30.148 
18:40	53.5	53.5	53.5	67	42.8	0	2	315	0.00	30.148 
18:45	53.5	53.5	53.5	67	42.8	0	2	315	0.00	30.148 
18:50	53.5	53.5	53.5	68	43.2	0	1	315	0.00	30.148 
18:55	53.5	53.5	53.5	68	43.2	0	1	315	0.00	30.148 
19:00	53.6	53.6	53.6	68	43.3	0	0	---	0.00	30.147 
19:05	53.6	53.6	53.6	67	42.9	0	3	315	0.00	30.147 
19:10	53.6	53.6	53.6	68	43.3	0	1	315	0.00	30.147 
19:15	53.6	53.6	53.6	67	42.9	0	1	315	0.00	30.148 
19:20	53.6	53.6	53.6	66	42.5	0	1	315	0.00	30.148 
19:25	53.6	53.6	53.6	66	42.5	0	1	315	0.00	30.148 
19:30	53.6	53.6	53.6	65	42.1	0	1	315	0.00	30.153 
19:35	53.6	53.6	53.6	64	41.7	0	1	315	0.00	30.153 
19:40	53.8	53.8	53.8	61	40.7	0	3	315	0.00	30.153 
19:45	53.8	53.8	53.8	60	40.2	0	2	315	0.00	30.163 
19:50	53.6	53.6	53.6	60	40.1	0	1	315	0.00	30.163 
19:55	53.6	53.6	53.6	59	39.6	0	2	315	0.00	30.163 
20:00	53.5	53.5	53.5	58	39.1	0	3	315	0.00	30.158 
20:05	53.5	53.5	53.5	58	39.1	0	1	315	0.00	30.158 
20:10	53.3	53.3	53.3	58	38.9	0	0	---	0.00	30.158 
20:15	53.2	53.2	53.2	59	39.2	0	0	---	0.00	30.166 
20:20	53.2	53.2	53.2	59	39.2	0	1	315	0.00	30.166 
20:25	53.1	53.1	53.1	58	38.7	0	0	---	0.00	30.166 
20:30	52.9	52.9	52.9	58	38.5	0	0	---	0.00	30.164 
20:35	52.9	52.9	52.9	58	38.5	0	0	---	0.00	30.164 
20:40	52.8	52.8	52.8	59	38.9	0	0	---	0.00	30.164 
20:45	52.6	52.6	52.6	58	38.2	0	0	---	0.00	30.173 
20:50	52.6	52.6	52.6	58	38.2	0	0	---	0.00	30.173 
20:55	52.3	52.3	52.3	58	38.0	0	0	---	0.00	30.173 
21:00	52.2	52.2	52.2	58	37.9	0	0	---	0.00	30.168 
21:05	51.9	51.9	51.9	57	37.1	0	0	---	0.00	30.168 
21:10	51.6	51.6	51.6	57	36.9	0	0	---	0.00	30.168 
21:15	51.3	51.3	51.3	56	36.1	0	0	---	0.00	30.171 
21:20	51.1	51.1	51.1	56	36.0	0	1	315	0.00	30.171 
21:25	51.0	51.0	51.0	56	35.9	0	0	---	0.00	30.171 
21:30	50.7	50.7	50.7	57	36.0	0	0	---	0.00	30.182 
21:35	50.5	50.5	50.5	57	35.8	0	1	315	0.00	30.182 
21:40	50.1	50.1	50.1	59	36.3	0	1	315	0.00	30.182 
21:45	49.8	49.8	49.8	60	36.5	0	2	315	0.00	30.195 
21:50	49.6	49.6	49.6	60	36.3	0	1	315	0.00	30.195 
21:55	49.6	49.6	49.6	61	36.7	0	1	315	0.00	30.195 
22:00	49.4	49.4	49.4	62	36.9	0	1	315	0.00	30.185 
22:05	49.1	49.1	49.1	63	37.1	0	0	---	0.00	30.185 
22:10	48.8	48.8	48.8	64	37.2	0	0	---	0.00	30.185 
22:15	48.6	48.6	48.6	64	37.0	0	1	315	0.00	30.198 
22:20	48.5	48.5	48.5	65	37.3	0	1	315	0.00	30.198 
22:25	48.6	48.6	48.6	64	37.0	0	0	---	0.00	30.198 
22:30	48.6	48.6	48.6	65	37.4	0	1	315	0.00	30.200 
22:35	48.8	48.8	48.8	64	37.2	0	1	315	0.00	30.200 
22:40	48.9	48.9	48.9	64	37.3	0	1	315	0.00	30.200 
22:45	48.9	48.9	48.9	63	36.9	0	1	315	0.00	30.212 
22:50	49.1	49.1	49.1	63	37.1	0	0	---	0.00	30.212 
22:55	49.1	49.1	49.1	64	37.5	0	0	---	0.00	30.212 
23:00	49.1	49.1	49.1	64	37.5	0	0	---	0.00	30.206 
23:05	49.1	49.1	49.1	63	37.1	0	2	315	0.00	30.206 
23:10	49.1	49.1	49.1	63	37.1	0	0	---	0.00	30.206 
23:15	49.1	49.1	49.1	63	37.1	0	0	---	0.00	30.201 
23:20	48.9	48.9	48.9	63	36.9	0	1	315	0.00	30.201 
23:25	48.9	48.9	48.9	62	36.5	0	2	315	0.00	30.201 
23:30	48.8	48.8	48.8	62	36.4	0	1	315	0.00	30.194 
23:35	48.6	48.6	48.6	63	36.6	0	1	315	0.00	30.194 
23:40	48.6	48.6	48.6	63	36.6	1	3	315	0.00	30.194 
23:45	48.5	48.5	48.5	63	36.5	0	1	315	0.00	30.214 
23:50	48.5	48.5	48.5	63	36.5	0	1	315	0.00	30.214 
23:55	48.6	48.6	48.6	63	36.6	0	0	---	0.00	30.214 

CoCoRaHS
IN-AL-39
A2 Web Hosting
Creative Commons License
GoDaddy
search engine by freefind advanced

loaded 2018-11-21 00:32:49 • last modified 2010-11-18 10:43:29
Privacy PolicyDisclaimer
• wx.awcolley.com is powered by PmWiki v.2002016 •
• all content (unless otherwise noted) © 2018 A W Colley